CYHZ/YHZ METAR and TAF weather

Enter ICAO airport designator
Station Type Date Time Source
CYHZ METAR 2021/03/05 12:00 UTC NOAA

CYHZ 051200Z 30011KT 250V310 15SM SCT028 BKN140 M08/M13 A2941 RMK SC3AC3 SLP968


Station Type Date Time Source
CYHZ Decoded METAR 2021/03/05 12:00 UTC NOAA

Halifax International Airport , Canada (CYHZ) 44-53N 063-30W
Mar 05, 2021 - 07:00 AM EST / 2021.03.05 1200 UTC
Wind: from the WNW (300 degrees) at 13 MPH (11 KT) (direction variable):0
Visibility: 15 mile(s):0
Sky conditions: mostly cloudy
Temperature: 17 F (-8 C)
Windchill: 3 F (-16 C):1
Dew Point: 8 F (-13 C)
Relative Humidity: 67%
Pressure (altimeter): 29.41 in. Hg (995 hPa)
ob: CYHZ 051200Z 30011KT 250V310 15SM SCT028 BKN140 M08/M13 A2941 RMK SC3AC3 SLP968
cycle: 12

Station Type Date Time Source
CYHZ TAF 2021/03/05 12:39 UTC NOAA

TAF CYHZ 051138Z 0512/0612 28010G20KT P6SM BKN030
TEMPO 0512/0611 SCT030
RMK NXT FCST BY 051500Z

Example: see airport list